sensor_id;sensor_type;location;lat;lon;timestamp;P1;durP1;ratioP1;P2;durP2;ratioP2
72319;SDS011;60269;52.502;16.732;2023-05-14T00:03:27;12.53;;;4.70;;
72319;SDS011;60269;52.502;16.732;2023-05-14T00:06:59;12.57;;;4.67;;
72319;SDS011;60269;52.502;16.732;2023-05-14T00:10:31;11.23;;;4.28;;
72319;SDS011;60269;52.502;16.732;2023-05-14T00:14:06;10.25;;;4.20;;
72319;SDS011;60269;52.502;16.732;2023-05-14T00:17:38;10.87;;;4.63;;
72319;SDS011;60269;52.502;16.732;2023-05-14T00:21:10;10.90;;;4.23;;
72319;SDS011;60269;52.502;16.732;2023-05-14T00:24:42;12.40;;;4.93;;
72319;SDS011;60269;52.502;16.732;2023-05-14T00:28:14;14.10;;;4.55;;
72319;SDS011;60269;52.502;16.732;2023-05-14T00:31:46;11.23;;;4.60;;
72319;SDS011;60269;52.502;16.732;2023-05-14T00:35:18;12.17;;;5.07;;
72319;SDS011;60269;52.502;16.732;2023-05-14T00:38:51;13.70;;;5.57;;
72319;SDS011;60269;52.502;16.732;2023-05-14T00:42:23;12.80;;;6.07;;
72319;SDS011;60269;52.502;16.732;2023-05-14T00:45:57;13.90;;;5.13;;
72319;SDS011;60269;52.502;16.732;2023-05-14T00:49:30;16.57;;;6.27;;
72319;SDS011;60269;52.502;16.732;2023-05-14T00:53:02;15.30;;;5.70;;
72319;SDS011;60269;52.502;16.732;2023-05-14T00:56:42;14.32;;;6.05;;
72319;SDS011;60269;52.502;16.732;2023-05-14T01:00:16;14.77;;;6.67;;
72319;SDS011;60269;52.502;16.732;2023-05-14T01:03:48;15.67;;;6.93;;
72319;SDS011;60269;52.502;16.732;2023-05-14T01:15:00;11.63;;;6.17;;
72319;SDS011;60269;52.502;16.732;2023-05-14T01:18:37;13.30;;;5.63;;
72319;SDS011;60269;52.502;16.732;2023-05-14T01:22:11;13.45;;;5.63;;
72319;SDS011;60269;52.502;16.732;2023-05-14T01:25:44;14.50;;;6.10;;
72319;SDS011;60269;52.502;16.732;2023-05-14T01:29:18;16.17;;;6.60;;
72319;SDS011;60269;52.502;16.732;2023-05-14T01:32:53;15.10;;;6.17;;
72319;SDS011;60269;52.502;16.732;2023-05-14T01:36:28;15.23;;;6.55;;
72319;SDS011;60269;52.502;16.732;2023-05-14T01:40:02;16.95;;;7.05;;
72319;SDS011;60269;52.502;16.732;2023-05-14T01:43:35;18.13;;;7.10;;
72319;SDS011;60269;52.502;16.732;2023-05-14T01:47:08;13.83;;;6.57;;
72319;SDS011;60269;52.502;16.732;2023-05-14T01:50:39;15.75;;;7.30;;
72319;SDS011;60269;52.502;16.732;2023-05-14T01:54:12;13.40;;;6.38;;
72319;SDS011;60269;52.502;16.732;2023-05-14T01:57:44;15.77;;;7.03;;
72319;SDS011;60269;52.502;16.732;2023-05-14T02:01:16;14.93;;;6.83;;
72319;SDS011;60269;52.502;16.732;2023-05-14T02:04:48;16.00;;;7.28;;
72319;SDS011;60269;52.502;16.732;2023-05-14T02:08:20;14.73;;;7.22;;
72319;SDS011;60269;52.502;16.732;2023-05-14T02:11:52;14.23;;;5.70;;
72319;SDS011;60269;52.502;16.732;2023-05-14T02:15:24;20.75;;;6.82;;
72319;SDS011;60269;52.502;16.732;2023-05-14T02:18:56;14.57;;;6.13;;
72319;SDS011;60269;52.502;16.732;2023-05-14T02:22:28;14.88;;;7.07;;
72319;SDS011;60269;52.502;16.732;2023-05-14T02:26:00;14.30;;;6.30;;
72319;SDS011;60269;52.502;16.732;2023-05-14T02:29:32;15.23;;;7.10;;
72319;SDS011;60269;52.502;16.732;2023-05-14T02:33:04;17.23;;;6.30;;
72319;SDS011;60269;52.502;16.732;2023-05-14T02:36:36;15.30;;;6.03;;
72319;SDS011;60269;52.502;16.732;2023-05-14T02:40:08;14.17;;;6.00;;
72319;SDS011;60269;52.502;16.732;2023-05-14T02:43:41;14.00;;;6.70;;
72319;SDS011;60269;52.502;16.732;2023-05-14T02:47:12;13.85;;;6.20;;
72319;SDS011;60269;52.502;16.732;2023-05-14T02:50:44;13.93;;;6.57;;
72319;SDS011;60269;52.502;16.732;2023-05-14T02:54:17;12.68;;;6.50;;
72319;SDS011;60269;52.502;16.732;2023-05-14T02:57:49;16.48;;;6.85;;
72319;SDS011;60269;52.502;16.732;2023-05-14T03:01:23;15.40;;;6.50;;
72319;SDS011;60269;52.502;16.732;2023-05-14T03:04:55;14.67;;;7.50;;
72319;SDS011;60269;52.502;16.732;2023-05-14T03:08:27;17.63;;;7.82;;
72319;SDS011;60269;52.502;16.732;2023-05-14T03:11:58;16.33;;;7.63;;
72319;SDS011;60269;52.502;16.732;2023-05-14T03:15:31;16.80;;;7.63;;
72319;SDS011;60269;52.502;16.732;2023-05-14T03:19:03;18.47;;;7.93;;
72319;SDS011;60269;52.502;16.732;2023-05-14T03:22:35;16.33;;;7.20;;
72319;SDS011;60269;52.502;16.732;2023-05-14T03:26:06;16.63;;;7.43;;
72319;SDS011;60269;52.502;16.732;2023-05-14T03:29:39;16.23;;;8.13;;
72319;SDS011;60269;52.502;16.732;2023-05-14T03:33:11;14.07;;;6.90;;
72319;SDS011;60269;52.502;16.732;2023-05-14T03:36:44;18.90;;;7.18;;
72319;SDS011;60269;52.502;16.732;2023-05-14T03:40:16;15.07;;;6.80;;
72319;SDS011;60269;52.502;16.732;2023-05-14T03:43:48;15.00;;;7.27;;
72319;SDS011;60269;52.502;16.732;2023-05-14T03:47:20;15.77;;;7.03;;
72319;SDS011;60269;52.502;16.732;2023-05-14T03:50:52;18.25;;;7.80;;
72319;SDS011;60269;52.502;16.732;2023-05-14T03:54:24;14.45;;;7.53;;
72319;SDS011;60269;52.502;16.732;2023-05-14T03:57:56;19.47;;;8.20;;
72319;SDS011;60269;52.502;16.732;2023-05-14T04:01:28;14.00;;;7.45;;
72319;SDS011;60269;52.502;16.732;2023-05-14T04:05:00;16.98;;;8.18;;
72319;SDS011;60269;52.502;16.732;2023-05-14T04:08:32;13.35;;;7.05;;
72319;SDS011;60269;52.502;16.732;2023-05-14T04:12:04;14.10;;;7.33;;
72319;SDS011;60269;52.502;16.732;2023-05-14T04:15:37;15.65;;;7.63;;
72319;SDS011;60269;52.502;16.732;2023-05-14T04:19:10;13.20;;;7.07;;
72319;SDS011;60269;52.502;16.732;2023-05-14T04:22:42;15.93;;;8.10;;
72319;SDS011;60269;52.502;16.732;2023-05-14T04:26:14;17.60;;;6.90;;
72319;SDS011;60269;52.502;16.732;2023-05-14T04:29:46;18.20;;;6.90;;
72319;SDS011;60269;52.502;16.732;2023-05-14T04:33:18;13.60;;;6.60;;
72319;SDS011;60269;52.502;16.732;2023-05-14T04:36:50;15.40;;;7.63;;
72319;SDS011;60269;52.502;16.732;2023-05-14T04:40:23;19.67;;;8.20;;
72319;SDS011;60269;52.502;16.732;2023-05-14T04:43:55;15.07;;;7.93;;
72319;SDS011;60269;52.502;16.732;2023-05-14T04:47:29;13.52;;;7.25;;
72319;SDS011;60269;52.502;16.732;2023-05-14T04:51:02;14.32;;;7.25;;
72319;SDS011;60269;52.502;16.732;2023-05-14T04:54:37;14.37;;;6.87;;
72319;SDS011;60269;52.502;16.732;2023-05-14T04:58:09;13.18;;;6.65;;
72319;SDS011;60269;52.502;16.732;2023-05-14T05:01:41;14.93;;;6.88;;
72319;SDS011;60269;52.502;16.732;2023-05-14T05:05:13;13.00;;;6.73;;
72319;SDS011;60269;52.502;16.732;2023-05-14T05:08:45;12.37;;;6.90;;
72319;SDS011;60269;52.502;16.732;2023-05-14T05:12:18;14.27;;;6.57;;
72319;SDS011;60269;52.502;16.732;2023-05-14T05:15:50;15.57;;;6.68;;
72319;SDS011;60269;52.502;16.732;2023-05-14T05:19:22;12.68;;;6.50;;
72319;SDS011;60269;52.502;16.732;2023-05-14T05:23:06;11.77;;;6.60;;
72319;SDS011;60269;52.502;16.732;2023-05-14T05:26:39;16.17;;;6.80;;
72319;SDS011;60269;52.502;16.732;2023-05-14T05:30:11;13.30;;;7.28;;
72319;SDS011;60269;52.502;16.732;2023-05-14T05:33:43;10.90;;;5.60;;
72319;SDS011;60269;52.502;16.732;2023-05-14T05:37:16;11.55;;;6.30;;
72319;SDS011;60269;52.502;16.732;2023-05-14T05:40:48;12.77;;;7.10;;
72319;SDS011;60269;52.502;16.732;2023-05-14T05:44:19;12.05;;;6.43;;
72319;SDS011;60269;52.502;16.732;2023-05-14T05:47:52;14.38;;;6.55;;
72319;SDS011;60269;52.502;16.732;2023-05-14T05:51:23;11.98;;;6.30;;
72319;SDS011;60269;52.502;16.732;2023-05-14T05:54:55;11.57;;;6.30;;
72319;SDS011;60269;52.502;16.732;2023-05-14T05:58:28;13.50;;;6.47;;
72319;SDS011;60269;52.502;16.732;2023-05-14T06:01:59;12.48;;;6.88;;
72319;SDS011;60269;52.502;16.732;2023-05-14T06:05:32;12.52;;;6.78;;
72319;SDS011;60269;52.502;16.732;2023-05-14T06:09:04;14.63;;;6.80;;
72319;SDS011;60269;52.502;16.732;2023-05-14T06:12:37;16.57;;;7.10;;
72319;SDS011;60269;52.502;16.732;2023-05-14T06:16:09;11.73;;;7.00;;
72319;SDS011;60269;52.502;16.732;2023-05-14T06:19:44;15.48;;;7.00;;
72319;SDS011;60269;52.502;16.732;2023-05-14T06:23:15;11.50;;;6.45;;
72319;SDS011;60269;52.502;16.732;2023-05-14T06:26:47;13.93;;;6.68;;
72319;SDS011;60269;52.502;16.732;2023-05-14T06:30:20;12.37;;;6.40;;
72319;SDS011;60269;52.502;16.732;2023-05-14T06:33:52;16.83;;;6.33;;
72319;SDS011;60269;52.502;16.732;2023-05-14T06:37:24;14.40;;;6.30;;
72319;SDS011;60269;52.502;16.732;2023-05-14T06:40:56;13.57;;;5.45;;
72319;SDS011;60269;52.502;16.732;2023-05-14T06:44:28;14.90;;;6.45;;
72319;SDS011;60269;52.502;16.732;2023-05-14T06:48:02;13.27;;;5.60;;
72319;SDS011;60269;52.502;16.732;2023-05-14T06:51:34;12.37;;;5.90;;
72319;SDS011;60269;52.502;16.732;2023-05-14T06:55:07;11.10;;;5.93;;
72319;SDS011;60269;52.502;16.732;2023-05-14T06:58:39;14.27;;;6.15;;
72319;SDS011;60269;52.502;16.732;2023-05-14T07:02:11;12.80;;;5.45;;
72319;SDS011;60269;52.502;16.732;2023-05-14T07:05:43;11.73;;;5.47;;
72319;SDS011;60269;52.502;16.732;2023-05-14T07:09:17;10.00;;;5.47;;
72319;SDS011;60269;52.502;16.732;2023-05-14T07:12:49;9.90;;;5.20;;
72319;SDS011;60269;52.502;16.732;2023-05-14T07:16:21;9.15;;;4.60;;
72319;SDS011;60269;52.502;16.732;2023-05-14T07:19:53;9.18;;;4.15;;
72319;SDS011;60269;52.502;16.732;2023-05-14T07:23:26;8.57;;;4.00;;
72319;SDS011;60269;52.502;16.732;2023-05-14T07:26:58;10.73;;;4.37;;
72319;SDS011;60269;52.502;16.732;2023-05-14T07:30:31;8.48;;;4.80;;
72319;SDS011;60269;52.502;16.732;2023-05-14T07:34:03;11.27;;;3.88;;
72319;SDS011;60269;52.502;16.732;2023-05-14T07:37:36;9.20;;;3.58;;
72319;SDS011;60269;52.502;16.732;2023-05-14T07:41:08;6.40;;;2.97;;
72319;SDS011;60269;52.502;16.732;2023-05-14T07:44:42;10.55;;;3.03;;
72319;SDS011;60269;52.502;16.732;2023-05-14T07:48:14;10.75;;;3.33;;
72319;SDS011;60269;52.502;16.732;2023-05-14T07:51:46;9.68;;;3.55;;
72319;SDS011;60269;52.502;16.732;2023-05-14T07:55:21;8.48;;;4.07;;
72319;SDS011;60269;52.502;16.732;2023-05-14T07:58:53;12.13;;;3.63;;
72319;SDS011;60269;52.502;16.732;2023-05-14T08:02:27;11.43;;;3.50;;
72319;SDS011;60269;52.502;16.732;2023-05-14T08:05:59;9.35;;;4.10;;
72319;SDS011;60269;52.502;16.732;2023-05-14T08:09:31;8.85;;;3.40;;
72319;SDS011;60269;52.502;16.732;2023-05-14T08:13:03;9.00;;;3.33;;
72319;SDS011;60269;52.502;16.732;2023-05-14T08:16:35;7.50;;;4.00;;
72319;SDS011;60269;52.502;16.732;2023-05-14T08:20:07;7.53;;;3.65;;
72319;SDS011;60269;52.502;16.732;2023-05-14T08:23:40;8.35;;;3.33;;
72319;SDS011;60269;52.502;16.732;2023-05-14T08:27:12;8.80;;;3.15;;
72319;SDS011;60269;52.502;16.732;2023-05-14T08:30:44;6.53;;;3.10;;
72319;SDS011;60269;52.502;16.732;2023-05-14T08:34:16;6.77;;;3.10;;
72319;SDS011;60269;52.502;16.732;2023-05-14T08:37:48;6.72;;;3.10;;
72319;SDS011;60269;52.502;16.732;2023-05-14T08:41:20;7.28;;;3.33;;
72319;SDS011;60269;52.502;16.732;2023-05-14T08:44:56;6.47;;;3.58;;
72319;SDS011;60269;52.502;16.732;2023-05-14T08:48:31;7.67;;;2.80;;
72319;SDS011;60269;52.502;16.732;2023-05-14T08:52:08;9.37;;;3.03;;
72319;SDS011;60269;52.502;16.732;2023-05-14T08:55:41;7.25;;;2.67;;
72319;SDS011;60269;52.502;16.732;2023-05-14T08:59:14;6.00;;;2.90;;
72319;SDS011;60269;52.502;16.732;2023-05-14T09:02:47;6.55;;;2.40;;
72319;SDS011;60269;52.502;16.732;2023-05-14T09:06:19;8.50;;;2.37;;
72319;SDS011;60269;52.502;16.732;2023-05-14T09:09:53;7.85;;;2.40;;
72319;SDS011;60269;52.502;16.732;2023-05-14T09:13:25;6.93;;;2.22;;
72319;SDS011;60269;52.502;16.732;2023-05-14T09:16:59;8.60;;;2.42;;
72319;SDS011;60269;52.502;16.732;2023-05-14T09:20:31;8.13;;;2.50;;
72319;SDS011;60269;52.502;16.732;2023-05-14T09:24:03;6.70;;;2.07;;
72319;SDS011;60269;52.502;16.732;2023-05-14T09:27:35;7.35;;;2.53;;
72319;SDS011;60269;52.502;16.732;2023-05-14T09:31:07;5.30;;;2.20;;
72319;SDS011;60269;52.502;16.732;2023-05-14T09:34:40;6.82;;;2.40;;
72319;SDS011;60269;52.502;16.732;2023-05-14T09:38:13;6.90;;;2.13;;
72319;SDS011;60269;52.502;16.732;2023-05-14T09:41:45;6.47;;;2.70;;
72319;SDS011;60269;52.502;16.732;2023-05-14T09:45:17;7.25;;;2.50;;
72319;SDS011;60269;52.502;16.732;2023-05-14T09:48:49;6.88;;;2.63;;
72319;SDS011;60269;52.502;16.732;2023-05-14T09:52:24;6.88;;;2.53;;
72319;SDS011;60269;52.502;16.732;2023-05-14T09:55:56;5.97;;;2.33;;
72319;SDS011;60269;52.502;16.732;2023-05-14T09:59:28;6.27;;;2.50;;
72319;SDS011;60269;52.502;16.732;2023-05-14T10:03:03;7.88;;;3.35;;
72319;SDS011;60269;52.502;16.732;2023-05-14T10:06:38;8.48;;;2.42;;
72319;SDS011;60269;52.502;16.732;2023-05-14T10:10:14;9.85;;;2.47;;
72319;SDS011;60269;52.502;16.732;2023-05-14T10:14:00;6.97;;;2.73;;
72319;SDS011;60269;52.502;16.732;2023-05-14T10:17:43;6.55;;;2.53;;
72319;SDS011;60269;52.502;16.732;2023-05-14T10:21:19;10.63;;;3.10;;
72319;SDS011;60269;52.502;16.732;2023-05-14T10:24:53;9.90;;;2.22;;
72319;SDS011;60269;52.502;16.732;2023-05-14T10:28:26;6.05;;;2.65;;
72319;SDS011;60269;52.502;16.732;2023-05-14T10:31:59;5.27;;;2.20;;
72319;SDS011;60269;52.502;16.732;2023-05-14T10:39:46;6.25;;;2.65;;
72319;SDS011;60269;52.502;16.732;2023-05-14T10:43:20;6.05;;;1.85;;
72319;SDS011;60269;52.502;16.732;2023-05-14T10:46:55;5.72;;;2.28;;
72319;SDS011;60269;52.502;16.732;2023-05-14T10:50:27;8.47;;;2.40;;
72319;SDS011;60269;52.502;16.732;2023-05-14T10:54:00;7.32;;;2.35;;
72319;SDS011;60269;52.502;16.732;2023-05-14T10:57:38;7.25;;;2.88;;
72319;SDS011;60269;52.502;16.732;2023-05-14T11:01:11;5.53;;;2.00;;
72319;SDS011;60269;52.502;16.732;2023-05-14T11:04:50;6.57;;;2.65;;
72319;SDS011;60269;52.502;16.732;2023-05-14T11:08:27;6.47;;;2.17;;
72319;SDS011;60269;52.502;16.732;2023-05-14T11:12:00;6.63;;;2.45;;
72319;SDS011;60269;52.502;16.732;2023-05-14T11:15:31;7.05;;;2.50;;
72319;SDS011;60269;52.502;16.732;2023-05-14T11:19:04;7.22;;;3.15;;
72319;SDS011;60269;52.502;16.732;2023-05-14T11:22:37;7.28;;;2.70;;
72319;SDS011;60269;52.502;16.732;2023-05-14T11:26:10;6.63;;;2.07;;
72319;SDS011;60269;52.502;16.732;2023-05-14T11:29:44;8.60;;;2.85;;
72319;SDS011;60269;52.502;16.732;2023-05-14T11:33:18;9.90;;;2.42;;
72319;SDS011;60269;52.502;16.732;2023-05-14T11:36:51;9.05;;;2.65;;
72319;SDS011;60269;52.502;16.732;2023-05-14T11:40:22;7.03;;;3.10;;
72319;SDS011;60269;52.502;16.732;2023-05-14T11:43:55;6.73;;;2.40;;
72319;SDS011;60269;52.502;16.732;2023-05-14T11:47:28;7.53;;;2.13;;
72319;SDS011;60269;52.502;16.732;2023-05-14T11:51:04;8.05;;;3.08;;
72319;SDS011;60269;52.502;16.732;2023-05-14T11:54:36;7.13;;;2.67;;
72319;SDS011;60269;52.502;16.732;2023-05-14T11:58:08;13.27;;;3.55;;
72319;SDS011;60269;52.502;16.732;2023-05-14T12:01:40;10.23;;;2.60;;
72319;SDS011;60269;52.502;16.732;2023-05-14T12:05:12;10.00;;;2.70;;
72319;SDS011;60269;52.502;16.732;2023-05-14T12:08:46;8.65;;;3.35;;
72319;SDS011;60269;52.502;16.732;2023-05-14T12:12:22;8.88;;;2.55;;
72319;SDS011;60269;52.502;16.732;2023-05-14T12:15:54;6.40;;;2.78;;
72319;SDS011;60269;52.502;16.732;2023-05-14T12:19:28;7.03;;;2.63;;
72319;SDS011;60269;52.502;16.732;2023-05-14T12:23:01;9.00;;;2.03;;
72319;SDS011;60269;52.502;16.732;2023-05-14T12:26:33;9.48;;;2.90;;
72319;SDS011;60269;52.502;16.732;2023-05-14T12:30:05;6.82;;;1.83;;
72319;SDS011;60269;52.502;16.732;2023-05-14T12:33:41;6.97;;;1.85;;
72319;SDS011;60269;52.502;16.732;2023-05-14T12:37:13;5.17;;;1.73;;
72319;SDS011;60269;52.502;16.732;2023-05-14T12:40:45;5.32;;;1.80;;
72319;SDS011;60269;52.502;16.732;2023-05-14T12:44:17;6.18;;;2.40;;
72319;SDS011;60269;52.502;16.732;2023-05-14T12:47:49;7.38;;;2.17;;
72319;SDS011;60269;52.502;16.732;2023-05-14T12:51:22;5.25;;;2.20;;
72319;SDS011;60269;52.502;16.732;2023-05-14T12:54:54;6.57;;;1.90;;
72319;SDS011;60269;52.502;16.732;2023-05-14T12:58:26;8.00;;;2.33;;
72319;SDS011;60269;52.502;16.732;2023-05-14T13:01:58;7.78;;;2.10;;
72319;SDS011;60269;52.502;16.732;2023-05-14T13:05:30;11.07;;;1.98;;
72319;SDS011;60269;52.502;16.732;2023-05-14T13:09:02;8.25;;;2.35;;
72319;SDS011;60269;52.502;16.732;2023-05-14T13:12:34;6.97;;;2.43;;
72319;SDS011;60269;52.502;16.732;2023-05-14T13:16:06;7.70;;;2.47;;
72319;SDS011;60269;52.502;16.732;2023-05-14T13:19:38;6.63;;;2.75;;
72319;SDS011;60269;52.502;16.732;2023-05-14T13:23:10;5.68;;;2.08;;
72319;SDS011;60269;52.502;16.732;2023-05-14T13:26:42;7.50;;;2.58;;
72319;SDS011;60269;52.502;16.732;2023-05-14T13:30:16;6.10;;;2.00;;
72319;SDS011;60269;52.502;16.732;2023-05-14T13:33:48;6.07;;;2.50;;
72319;SDS011;60269;52.502;16.732;2023-05-14T13:37:20;7.10;;;2.40;;
72319;SDS011;60269;52.502;16.732;2023-05-14T13:40:52;7.75;;;2.05;;
72319;SDS011;60269;52.502;16.732;2023-05-14T13:44:25;7.30;;;2.35;;
72319;SDS011;60269;52.502;16.732;2023-05-14T13:47:58;7.63;;;2.47;;
72319;SDS011;60269;52.502;16.732;2023-05-14T13:51:30;7.30;;;2.10;;
72319;SDS011;60269;52.502;16.732;2023-05-14T13:55:02;7.70;;;2.40;;
72319;SDS011;60269;52.502;16.732;2023-05-14T13:58:34;6.32;;;2.17;;
72319;SDS011;60269;52.502;16.732;2023-05-14T14:02:06;6.25;;;2.10;;
72319;SDS011;60269;52.502;16.732;2023-05-14T14:05:38;10.10;;;2.20;;
72319;SDS011;60269;52.502;16.732;2023-05-14T14:09:11;7.55;;;2.28;;
72319;SDS011;60269;52.502;16.732;2023-05-14T14:12:44;5.22;;;1.85;;
72319;SDS011;60269;52.502;16.732;2023-05-14T14:16:16;8.18;;;2.25;;
72319;SDS011;60269;52.502;16.732;2023-05-14T14:19:48;6.80;;;2.17;;
72319;SDS011;60269;52.502;16.732;2023-05-14T14:23:21;6.70;;;2.77;;
72319;SDS011;60269;52.502;16.732;2023-05-14T14:26:53;7.85;;;2.83;;
72319;SDS011;60269;52.502;16.732;2023-05-14T14:30:25;7.28;;;2.35;;
72319;SDS011;60269;52.502;16.732;2023-05-14T14:33:57;7.32;;;2.70;;
72319;SDS011;60269;52.502;16.732;2023-05-14T14:37:29;6.80;;;2.67;;
72319;SDS011;60269;52.502;16.732;2023-05-14T14:41:01;8.37;;;2.23;;
72319;SDS011;60269;52.502;16.732;2023-05-14T14:44:37;6.57;;;2.63;;
72319;SDS011;60269;52.502;16.732;2023-05-14T14:51:53;5.82;;;2.85;;
72319;SDS011;60269;52.502;16.732;2023-05-14T14:55:25;5.90;;;2.90;;
72319;SDS011;60269;52.502;16.732;2023-05-14T14:58:57;7.47;;;2.80;;
72319;SDS011;60269;52.502;16.732;2023-05-14T15:02:33;8.05;;;2.97;;
72319;SDS011;60269;52.502;16.732;2023-05-14T15:06:05;6.97;;;2.75;;
72319;SDS011;60269;52.502;16.732;2023-05-14T15:09:37;8.02;;;2.20;;
72319;SDS011;60269;52.502;16.732;2023-05-14T15:13:10;6.13;;;2.20;;
72319;SDS011;60269;52.502;16.732;2023-05-14T15:16:42;5.70;;;2.07;;
72319;SDS011;60269;52.502;16.732;2023-05-14T15:20:15;4.75;;;1.60;;
72319;SDS011;60269;52.502;16.732;2023-05-14T15:23:50;7.13;;;2.30;;
72319;SDS011;60269;52.502;16.732;2023-05-14T15:27:22;4.93;;;2.20;;
72319;SDS011;60269;52.502;16.732;2023-05-14T15:30:54;4.85;;;2.08;;
72319;SDS011;60269;52.502;16.732;2023-05-14T15:34:28;7.53;;;2.07;;
72319;SDS011;60269;52.502;16.732;2023-05-14T15:38:00;6.70;;;2.10;;
72319;SDS011;60269;52.502;16.732;2023-05-14T15:41:32;6.15;;;2.42;;
72319;SDS011;60269;52.502;16.732;2023-05-14T15:45:05;7.70;;;2.15;;
72319;SDS011;60269;52.502;16.732;2023-05-14T15:48:37;7.65;;;2.17;;
72319;SDS011;60269;52.502;16.732;2023-05-14T15:52:09;4.80;;;1.60;;
72319;SDS011;60269;52.502;16.732;2023-05-14T15:55:41;5.32;;;1.60;;
72319;SDS011;60269;52.502;16.732;2023-05-14T15:59:16;8.02;;;1.77;;
72319;SDS011;60269;52.502;16.732;2023-05-14T16:02:49;4.55;;;1.92;;
72319;SDS011;60269;52.502;16.732;2023-05-14T16:06:21;7.13;;;2.10;;
72319;SDS011;60269;52.502;16.732;2023-05-14T16:09:55;5.13;;;1.83;;
72319;SDS011;60269;52.502;16.732;2023-05-14T16:13:26;6.57;;;2.00;;
72319;SDS011;60269;52.502;16.732;2023-05-14T16:16:59;8.48;;;2.08;;
72319;SDS011;60269;52.502;16.732;2023-05-14T16:20:32;4.97;;;1.90;;
72319;SDS011;60269;52.502;16.732;2023-05-14T16:24:04;8.93;;;2.20;;
72319;SDS011;60269;52.502;16.732;2023-05-14T16:27:36;7.67;;;1.70;;
72319;SDS011;60269;52.502;16.732;2023-05-14T16:31:09;6.03;;;1.63;;
72319;SDS011;60269;52.502;16.732;2023-05-14T16:34:41;4.70;;;1.75;;
72319;SDS011;60269;52.502;16.732;2023-05-14T16:38:20;6.85;;;2.33;;
72319;SDS011;60269;52.502;16.732;2023-05-14T16:41:52;6.97;;;1.87;;
72319;SDS011;60269;52.502;16.732;2023-05-14T16:45:24;5.33;;;1.80;;
72319;SDS011;60269;52.502;16.732;2023-05-14T16:48:57;9.65;;;2.05;;
72319;SDS011;60269;52.502;16.732;2023-05-14T16:52:28;10.35;;;2.20;;
72319;SDS011;60269;52.502;16.732;2023-05-14T16:56:02;10.40;;;2.35;;
72319;SDS011;60269;52.502;16.732;2023-05-14T16:59:34;6.93;;;2.43;;
72319;SDS011;60269;52.502;16.732;2023-05-14T17:03:06;6.38;;;1.90;;
72319;SDS011;60269;52.502;16.732;2023-05-14T17:06:38;12.52;;;2.63;;
72319;SDS011;60269;52.502;16.732;2023-05-14T17:10:10;6.13;;;2.10;;
72319;SDS011;60269;52.502;16.732;2023-05-14T17:13:42;6.93;;;2.20;;
72319;SDS011;60269;52.502;16.732;2023-05-14T17:17:17;5.43;;;2.23;;
72319;SDS011;60269;52.502;16.732;2023-05-14T17:20:50;5.20;;;2.38;;
72319;SDS011;60269;52.502;16.732;2023-05-14T17:24:24;8.48;;;2.50;;
72319;SDS011;60269;52.502;16.732;2023-05-14T17:27:57;9.02;;;2.13;;
72319;SDS011;60269;52.502;16.732;2023-05-14T17:31:28;6.47;;;2.37;;
72319;SDS011;60269;52.502;16.732;2023-05-14T17:35:01;7.47;;;2.15;;
72319;SDS011;60269;52.502;16.732;2023-05-14T17:38:33;8.43;;;2.30;;
72319;SDS011;60269;52.502;16.732;2023-05-14T17:42:05;5.65;;;2.30;;
72319;SDS011;60269;52.502;16.732;2023-05-14T17:45:39;6.00;;;2.00;;
72319;SDS011;60269;52.502;16.732;2023-05-14T17:49:25;7.40;;;2.40;;
72319;SDS011;60269;52.502;16.732;2023-05-14T17:52:57;7.70;;;1.95;;
72319;SDS011;60269;52.502;16.732;2023-05-14T17:56:29;5.75;;;2.63;;
72319;SDS011;60269;52.502;16.732;2023-05-14T18:00:01;5.13;;;2.22;;
72319;SDS011;60269;52.502;16.732;2023-05-14T18:03:35;6.27;;;2.23;;
72319;SDS011;60269;52.502;16.732;2023-05-14T18:07:07;5.10;;;1.50;;
72319;SDS011;60269;52.502;16.732;2023-05-14T18:10:39;5.07;;;1.60;;
72319;SDS011;60269;52.502;16.732;2023-05-14T18:14:11;7.60;;;1.45;;
72319;SDS011;60269;52.502;16.732;2023-05-14T18:17:44;5.07;;;1.33;;
72319;SDS011;60269;52.502;16.732;2023-05-14T18:21:16;4.83;;;1.53;;
72319;SDS011;60269;52.502;16.732;2023-05-14T18:24:48;6.33;;;1.53;;
72319;SDS011;60269;52.502;16.732;2023-05-14T18:28:20;6.30;;;1.25;;
72319;SDS011;60269;52.502;16.732;2023-05-14T18:31:52;7.30;;;1.20;;
72319;SDS011;60269;52.502;16.732;2023-05-14T18:35:24;4.15;;;1.13;;
72319;SDS011;60269;52.502;16.732;2023-05-14T18:38:57;6.90;;;1.43;;
72319;SDS011;60269;52.502;16.732;2023-05-14T18:42:29;7.72;;;1.55;;
72319;SDS011;60269;52.502;16.732;2023-05-14T18:46:02;5.72;;;1.52;;
72319;SDS011;60269;52.502;16.732;2023-05-14T18:49:34;5.15;;;1.42;;
72319;SDS011;60269;52.502;16.732;2023-05-14T18:53:09;4.90;;;1.40;;
72319;SDS011;60269;52.502;16.732;2023-05-14T18:56:41;8.60;;;1.63;;
72319;SDS011;60269;52.502;16.732;2023-05-14T19:00:19;5.97;;;1.65;;
72319;SDS011;60269;52.502;16.732;2023-05-14T19:03:51;5.10;;;1.63;;
72319;SDS011;60269;52.502;16.732;2023-05-14T19:07:23;6.93;;;1.63;;
72319;SDS011;60269;52.502;16.732;2023-05-14T19:10:56;6.17;;;1.30;;
72319;SDS011;60269;52.502;16.732;2023-05-14T19:14:29;4.65;;;1.17;;
72319;SDS011;60269;52.502;16.732;2023-05-14T19:18:01;4.43;;;1.30;;
72319;SDS011;60269;52.502;16.732;2023-05-14T19:21:33;4.55;;;1.20;;
72319;SDS011;60269;52.502;16.732;2023-05-14T19:25:06;6.80;;;1.50;;
72319;SDS011;60269;52.502;16.732;2023-05-14T19:28:39;6.25;;;1.60;;
72319;SDS011;60269;52.502;16.732;2023-05-14T19:32:11;16.50;;;4.32;;
72319;SDS011;60269;52.502;16.732;2023-05-14T19:35:43;33.55;;;14.82;;
72319;SDS011;60269;52.502;16.732;2023-05-14T19:39:15;49.30;;;22.33;;
72319;SDS011;60269;52.502;16.732;2023-05-14T19:42:48;37.67;;;17.17;;
72319;SDS011;60269;52.502;16.732;2023-05-14T19:46:20;32.25;;;15.43;;
72319;SDS011;60269;52.502;16.732;2023-05-14T19:49:52;21.75;;;9.23;;
72319;SDS011;60269;52.502;16.732;2023-05-14T19:53:26;16.50;;;6.35;;
72319;SDS011;60269;52.502;16.732;2023-05-14T19:57:01;13.63;;;4.57;;
72319;SDS011;60269;52.502;16.732;2023-05-14T20:00:33;11.50;;;4.27;;
72319;SDS011;60269;52.502;16.732;2023-05-14T20:04:07;9.98;;;3.95;;
72319;SDS011;60269;52.502;16.732;2023-05-14T20:07:40;12.35;;;4.65;;
72319;SDS011;60269;52.502;16.732;2023-05-14T20:11:12;11.48;;;4.57;;
72319;SDS011;60269;52.502;16.732;2023-05-14T20:14:46;10.73;;;4.03;;
72319;SDS011;60269;52.502;16.732;2023-05-14T20:18:18;9.73;;;3.83;;
72319;SDS011;60269;52.502;16.732;2023-05-14T20:21:50;10.18;;;3.78;;
72319;SDS011;60269;52.502;16.732;2023-05-14T20:25:22;9.20;;;3.50;;
72319;SDS011;60269;52.502;16.732;2023-05-14T20:28:58;7.40;;;2.60;;
72319;SDS011;60269;52.502;16.732;2023-05-14T20:32:30;6.53;;;2.37;;
72319;SDS011;60269;52.502;16.732;2023-05-14T20:36:03;7.30;;;2.55;;
72319;SDS011;60269;52.502;16.732;2023-05-14T20:39:35;8.82;;;2.63;;
72319;SDS011;60269;52.502;16.732;2023-05-14T20:43:07;7.97;;;2.75;;
72319;SDS011;60269;52.502;16.732;2023-05-14T20:46:39;10.00;;;4.43;;
72319;SDS011;60269;52.502;16.732;2023-05-14T20:50:11;15.40;;;6.38;;
72319;SDS011;60269;52.502;16.732;2023-05-14T20:53:44;17.45;;;6.75;;
72319;SDS011;60269;52.502;16.732;2023-05-14T20:57:17;19.63;;;7.00;;
72319;SDS011;60269;52.502;16.732;2023-05-14T21:00:50;13.77;;;5.57;;
72319;SDS011;60269;52.502;16.732;2023-05-14T21:04:22;14.13;;;5.20;;
72319;SDS011;60269;52.502;16.732;2023-05-14T21:07:54;12.70;;;5.07;;
72319;SDS011;60269;52.502;16.732;2023-05-14T21:11:26;16.05;;;5.13;;